Aérodrome :
LOGIN :

S'inscrire | Disclaimer

   EN    FR    IT 

 










Légende :    VFR   VFR Marginal   IFR   IFR Intensif   IFR Très Intensif
Visi : 
Plafond : 
>= 8 km
>= 3000ft
5 à 8 km
1000 à 3000 ft
1500m à 5 km
500 à 1000 ft
800 à 1500m
200 à 500 ft
< 800m
< 200 ft
Symboles :   Orages  Brouillard  Fortes neiges  Fortes précipitations  Vent > 20 kt
SIGMETs :   Divers  Orages  Givrage  Turbulence  Onde Orograph.  Cendres Volcan.






- Altitude de l'aérodrome : 357 ft
- Code IATA : TUF


LFOT - Tours

DERNIER METAR :
  • 162130Z AUTO 00000KT CAVOK 19/17 Q1009 TEMPO 4000 SHRA SCT040 BKN070TCU

METARs EXPIRÉS :
  • 162100Z AUTO 33003KT 300V360 CAVOK 20/18 Q1009 TEMPO 4000 SHRA SCT040 BKN070TCU
  • 162030Z AUTO 06003KT CAVOK 20/18 Q1009 TEMPO 4000 SHRA SCT040 BKN070TCU
  • 162000Z AUTO 00000KT CAVOK 20/18 Q1009 TEMPO 4000 SHRA SCT040 BKN070TCU
  • 161930Z AUTO 00000KT CAVOK 20/18 Q1008 TEMPO 4000 SHRA SCT040 BKN070TCU
  • 161900Z AUTO 12002KT CAVOK 21/18 Q1008 TEMPO 4000 SHRA SCT040 BKN070TCU
  • 161830Z AUTO 11002KT CAVOK 22/18 Q1008 TEMPO 4000 SHRA SCT040 BKN070TCU

TAF TAF LFOT
Valide du 16 à 18h jusqu'au 17 à 18h UTC


161700Z 1618/1718 VRB04KT CAVOK
PROB40
TEMPO 1618/1718 4000 SHRA SCT040 BKN070TCU
PROB30
TEMPO 1618/1619 VRB15G30KT 2500 TSRA FEW040CB
PROB30
TEMPO 1703/1709 2500 SHRA BKN008 BKN050CB
PROB40
TEMPO 1712/1718 24015G25KT 2500 TSRA SCT040CB



MET'MAP, la Météo Aéronautique d'un coup d'oeil ! - Copyright ORBIFLY Décembre 2007 - Disclaimer

ORBIFLY MET'MAP TEAM :

Programmation & Développement : Alexandra Zaïnal
Sur une idée originale de : Baudouin d'Aumeries
Soutien technique & logistique : Manuel Goepfert
Assistance : Marc-Olivier Méhu




SOURCES & CREDITS :

   NOAA